Hlavní strana
METAR-TAF:

METAR-TAF

Letiště :

Havre City-County Airport

Havre, Montana, Spojené státy americké

zeměpisná šířka: 48-32-34N, zeměpisná délka: 109-45-48W, výška: 789 m

Aktuální stav počasí

Zpráva byla vytvořena před 8 minutami, v 23:26 UTC
Jihozápadní vítr 15 kt
Teplota 23°C
Vlhkost vzduchu 47%
Tlak 1013 hPa
Viditelnost: 16.1 km
Skoro jasno ve výšce 10000 ft

METAR: KHVR 222326Z AUTO 23015KT 10SM FEW100 23/11 A2992 RMK AO2 WSHFT 2306 T02330106

Čas: 17:34 (23:34 UTC)

Předpověď počasí

Zpráva byla vytvořena před 5 hodinami a 54 minutami, v 17:40 UTC
Předpověď platná od 22 v 18 UTC do 23 v 18 UTC
Severoseverovýchodní vítr 7 kt
Viditelnost: 10 km
Skoro jasno ve výšce 8000 ft
Od 23 v 1200 UTC
Východoseverovýchodní vítr 10 kt
Viditelnost: 10 km
Polojasno ve výšce 8000 ft

TAF: KHVR 221740Z 2218/2318 03007KT P6SM FEW080 FM231200 07010KT P6SM SCT080

Stav a předpovědi počasí z více než 4 000 letišť (zprávy METAR a TAF).

Červené a žluté tečky na mapě představují dostupné meteorologické stanice.

Když kurzor umístíte na tečku, zobrazí se název stanice.

Pak kliknutím zobrazíte stav a předpověď počasí.

Chcete-li změnit mapu, kliknutím na zelené tlačítko se znaménkem +mapu přiblížíte, kliknutím na zelené tlačítko se znaménkem – mapu oddálíte a kliknutím na zelené šipky přejdete na sousední mapy.


METAR-TAF: